sensor_id;sensor_type;location;lat;lon;timestamp;P1;durP1;ratioP1;P2;durP2;ratioP2
20375;SDS011;10347;51.828;6.466;2022-12-07T00:01:34;11.30;;;8.98;;
20375;SDS011;10347;51.828;6.466;2022-12-07T00:04:02;14.40;;;9.20;;
20375;SDS011;10347;51.828;6.466;2022-12-07T00:06:30;9.27;;;8.25;;
20375;SDS011;10347;51.828;6.466;2022-12-07T00:09:07;9.20;;;8.15;;
20375;SDS011;10347;51.828;6.466;2022-12-07T00:11:36;11.60;;;9.23;;
20375;SDS011;10347;51.828;6.466;2022-12-07T00:14:02;15.20;;;10.48;;
20375;SDS011;10347;51.828;6.466;2022-12-07T00:16:31;13.57;;;9.60;;
20375;SDS011;10347;51.828;6.466;2022-12-07T00:18:59;17.17;;;9.00;;
20375;SDS011;10347;51.828;6.466;2022-12-07T00:21:26;12.40;;;8.70;;
20375;SDS011;10347;51.828;6.466;2022-12-07T00:23:54;10.48;;;8.27;;
20375;SDS011;10347;51.828;6.466;2022-12-07T00:26:24;10.55;;;8.43;;
20375;SDS011;10347;51.828;6.466;2022-12-07T00:28:52;10.75;;;8.52;;
20375;SDS011;10347;51.828;6.466;2022-12-07T00:31:20;10.23;;;8.50;;
20375;SDS011;10347;51.828;6.466;2022-12-07T00:33:47;12.02;;;9.25;;
20375;SDS011;10347;51.828;6.466;2022-12-07T00:36:14;11.20;;;8.20;;
20375;SDS011;10347;51.828;6.466;2022-12-07T00:38:41;10.43;;;7.78;;
20375;SDS011;10347;51.828;6.466;2022-12-07T00:41:10;11.20;;;8.32;;
20375;SDS011;10347;51.828;6.466;2022-12-07T00:43:38;11.23;;;7.88;;
20375;SDS011;10347;51.828;6.466;2022-12-07T00:46:04;8.27;;;7.13;;
20375;SDS011;10347;51.828;6.466;2022-12-07T00:48:30;10.82;;;7.30;;
20375;SDS011;10347;51.828;6.466;2022-12-07T00:50:56;8.68;;;6.90;;
20375;SDS011;10347;51.828;6.466;2022-12-07T00:53:22;9.60;;;7.25;;
20375;SDS011;10347;51.828;6.466;2022-12-07T00:55:48;10.20;;;7.55;;
20375;SDS011;10347;51.828;6.466;2022-12-07T00:58:14;9.40;;;7.32;;
20375;SDS011;10347;51.828;6.466;2022-12-07T01:00:40;7.80;;;6.70;;
20375;SDS011;10347;51.828;6.466;2022-12-07T01:03:07;7.70;;;6.65;;
20375;SDS011;10347;51.828;6.466;2022-12-07T01:05:35;7.28;;;6.45;;
20375;SDS011;10347;51.828;6.466;2022-12-07T01:08:01;7.88;;;5.93;;
20375;SDS011;10347;51.828;6.466;2022-12-07T01:10:27;8.82;;;6.07;;
20375;SDS011;10347;51.828;6.466;2022-12-07T01:12:52;8.68;;;6.32;;
20375;SDS011;10347;51.828;6.466;2022-12-07T01:15:18;7.47;;;6.22;;
20375;SDS011;10347;51.828;6.466;2022-12-07T01:17:44;7.25;;;5.97;;
20375;SDS011;10347;51.828;6.466;2022-12-07T01:20:09;9.25;;;6.18;;
20375;SDS011;10347;51.828;6.466;2022-12-07T01:22:39;10.75;;;6.22;;
20375;SDS011;10347;51.828;6.466;2022-12-07T01:25:06;12.30;;;6.57;;
20375;SDS011;10347;51.828;6.466;2022-12-07T01:27:33;9.45;;;6.68;;
20375;SDS011;10347;51.828;6.466;2022-12-07T01:29:59;7.88;;;6.22;;
20375;SDS011;10347;51.828;6.466;2022-12-07T01:32:26;7.30;;;5.85;;
20375;SDS011;10347;51.828;6.466;2022-12-07T01:34:52;6.72;;;5.45;;
20375;SDS011;10347;51.828;6.466;2022-12-07T01:37:17;9.27;;;6.43;;
20375;SDS011;10347;51.828;6.466;2022-12-07T01:39:43;7.28;;;5.60;;
20375;SDS011;10347;51.828;6.466;2022-12-07T01:42:10;7.55;;;6.43;;
20375;SDS011;10347;51.828;6.466;2022-12-07T01:47:39;9.88;;;6.30;;
20375;SDS011;10347;51.828;6.466;2022-12-07T01:50:05;6.10;;;5.50;;
20375;SDS011;10347;51.828;6.466;2022-12-07T01:52:31;10.02;;;6.10;;
20375;SDS011;10347;51.828;6.466;2022-12-07T01:55:01;8.38;;;6.68;;
20375;SDS011;10347;51.828;6.466;2022-12-07T01:57:31;6.85;;;5.25;;
20375;SDS011;10347;51.828;6.466;2022-12-07T01:59:59;7.15;;;5.65;;
20375;SDS011;10347;51.828;6.466;2022-12-07T02:02:29;6.95;;;5.28;;
20375;SDS011;10347;51.828;6.466;2022-12-07T02:04:59;5.82;;;5.22;;
20375;SDS011;10347;51.828;6.466;2022-12-07T02:07:25;7.47;;;5.93;;
20375;SDS011;10347;51.828;6.466;2022-12-07T02:09:52;8.23;;;5.20;;
20375;SDS011;10347;51.828;6.466;2022-12-07T02:12:18;9.23;;;6.68;;
20375;SDS011;10347;51.828;6.466;2022-12-07T02:14:45;9.02;;;5.95;;
20375;SDS011;10347;51.828;6.466;2022-12-07T02:17:19;9.77;;;6.80;;
20375;SDS011;10347;51.828;6.466;2022-12-07T02:22:27;9.02;;;5.65;;
20375;SDS011;10347;51.828;6.466;2022-12-07T02:25:04;8.65;;;5.38;;
20375;SDS011;10347;51.828;6.466;2022-12-07T02:27:38;7.70;;;5.47;;
20375;SDS011;10347;51.828;6.466;2022-12-07T02:30:22;7.35;;;5.18;;
20375;SDS011;10347;51.828;6.466;2022-12-07T02:32:56;9.23;;;5.55;;
20375;SDS011;10347;51.828;6.466;2022-12-07T02:35:33;6.68;;;4.40;;
20375;SDS011;10347;51.828;6.466;2022-12-07T02:41:04;7.28;;;5.55;;
20375;SDS011;10347;51.828;6.466;2022-12-07T02:43:59;5.75;;;5.13;;
20375;SDS011;10347;51.828;6.466;2022-12-07T02:46:29;6.75;;;5.20;;
20375;SDS011;10347;51.828;6.466;2022-12-07T02:48:58;7.43;;;5.28;;
20375;SDS011;10347;51.828;6.466;2022-12-07T02:51:24;6.97;;;5.30;;
20375;SDS011;10347;51.828;6.466;2022-12-07T02:53:50;6.63;;;5.07;;
20375;SDS011;10347;51.828;6.466;2022-12-07T03:02:17;5.93;;;5.25;;
20375;SDS011;10347;51.828;6.466;2022-12-07T03:08:07;9.07;;;5.75;;
20375;SDS011;10347;51.828;6.466;2022-12-07T03:18:37;10.10;;;6.22;;
20375;SDS011;10347;51.828;6.466;2022-12-07T03:21:10;6.55;;;5.53;;
20375;SDS011;10347;51.828;6.466;2022-12-07T03:23:39;7.03;;;5.53;;
20375;SDS011;10347;51.828;6.466;2022-12-07T03:26:08;6.40;;;4.82;;
20375;SDS011;10347;51.828;6.466;2022-12-07T03:28:39;9.45;;;5.75;;
20375;SDS011;10347;51.828;6.466;2022-12-07T03:31:21;7.25;;;5.53;;
20375;SDS011;10347;51.828;6.466;2022-12-07T03:34:01;8.25;;;5.32;;
20375;SDS011;10347;51.828;6.466;2022-12-07T03:37:00;5.75;;;4.82;;
20375;SDS011;10347;51.828;6.466;2022-12-07T03:42:22;6.10;;;5.03;;
20375;SDS011;10347;51.828;6.466;2022-12-07T03:44:47;7.47;;;5.32;;
20375;SDS011;10347;51.828;6.466;2022-12-07T03:47:16;8.20;;;5.35;;
20375;SDS011;10347;51.828;6.466;2022-12-07T03:50:03;6.72;;;4.88;;
20375;SDS011;10347;51.828;6.466;2022-12-07T03:53:03;9.20;;;5.43;;
20375;SDS011;10347;51.828;6.466;2022-12-07T03:55:36;7.60;;;5.10;;
20375;SDS011;10347;51.828;6.466;2022-12-07T03:58:07;6.40;;;4.88;;
20375;SDS011;10347;51.828;6.466;2022-12-07T04:00:40;8.07;;;5.45;;
20375;SDS011;10347;51.828;6.466;2022-12-07T04:03:07;7.40;;;5.25;;
20375;SDS011;10347;51.828;6.466;2022-12-07T04:05:33;6.35;;;5.40;;
20375;SDS011;10347;51.828;6.466;2022-12-07T04:07:59;7.47;;;5.07;;
20375;SDS011;10347;51.828;6.466;2022-12-07T04:10:24;7.47;;;4.85;;
20375;SDS011;10347;51.828;6.466;2022-12-07T04:12:50;12.80;;;4.80;;
20375;SDS011;10347;51.828;6.466;2022-12-07T04:15:16;8.23;;;4.43;;
20375;SDS011;10347;51.828;6.466;2022-12-07T04:17:41;9.65;;;5.57;;
20375;SDS011;10347;51.828;6.466;2022-12-07T04:20:07;10.05;;;5.22;;
20375;SDS011;10347;51.828;6.466;2022-12-07T04:22:33;5.28;;;4.60;;
20375;SDS011;10347;51.828;6.466;2022-12-07T04:24:59;7.65;;;4.50;;
20375;SDS011;10347;51.828;6.466;2022-12-07T04:27:25;6.15;;;4.65;;
20375;SDS011;10347;51.828;6.466;2022-12-07T04:29:50;5.00;;;4.38;;
20375;SDS011;10347;51.828;6.466;2022-12-07T04:32:16;5.97;;;4.25;;
20375;SDS011;10347;51.828;6.466;2022-12-07T04:34:41;5.82;;;4.30;;
20375;SDS011;10347;51.828;6.466;2022-12-07T04:37:07;8.90;;;4.00;;
20375;SDS011;10347;51.828;6.466;2022-12-07T04:39:33;6.70;;;5.10;;
20375;SDS011;10347;51.828;6.466;2022-12-07T04:41:59;5.22;;;4.38;;
20375;SDS011;10347;51.828;6.466;2022-12-07T04:44:25;5.45;;;4.38;;
20375;SDS011;10347;51.828;6.466;2022-12-07T04:46:52;7.20;;;3.95;;
20375;SDS011;10347;51.828;6.466;2022-12-07T04:49:18;7.80;;;4.15;;
20375;SDS011;10347;51.828;6.466;2022-12-07T04:51:44;6.95;;;4.10;;
20375;SDS011;10347;51.828;6.466;2022-12-07T04:54:10;8.15;;;4.40;;
20375;SDS011;10347;51.828;6.466;2022-12-07T04:56:36;9.10;;;4.50;;
20375;SDS011;10347;51.828;6.466;2022-12-07T04:59:02;8.15;;;3.92;;
20375;SDS011;10347;51.828;6.466;2022-12-07T05:01:28;5.05;;;3.70;;
20375;SDS011;10347;51.828;6.466;2022-12-07T05:03:54;6.03;;;4.32;;
20375;SDS011;10347;51.828;6.466;2022-12-07T05:06:20;6.07;;;4.13;;
20375;SDS011;10347;51.828;6.466;2022-12-07T05:08:46;7.47;;;4.07;;
20375;SDS011;10347;51.828;6.466;2022-12-07T05:11:12;5.50;;;4.25;;
20375;SDS011;10347;51.828;6.466;2022-12-07T05:13:57;5.85;;;3.83;;
20375;SDS011;10347;51.828;6.466;2022-12-07T05:16:23;5.43;;;3.92;;
20375;SDS011;10347;51.828;6.466;2022-12-07T05:18:48;6.53;;;4.45;;
20375;SDS011;10347;51.828;6.466;2022-12-07T05:21:14;4.13;;;3.50;;
20375;SDS011;10347;51.828;6.466;2022-12-07T05:23:39;6.88;;;3.90;;
20375;SDS011;10347;51.828;6.466;2022-12-07T05:26:05;5.07;;;3.40;;
20375;SDS011;10347;51.828;6.466;2022-12-07T05:28:31;5.50;;;4.30;;
20375;SDS011;10347;51.828;6.466;2022-12-07T05:30:56;5.47;;;3.67;;
20375;SDS011;10347;51.828;6.466;2022-12-07T05:33:22;5.47;;;3.85;;
20375;SDS011;10347;51.828;6.466;2022-12-07T05:35:47;6.93;;;4.15;;
20375;SDS011;10347;51.828;6.466;2022-12-07T05:38:13;5.25;;;3.63;;
20375;SDS011;10347;51.828;6.466;2022-12-07T05:40:38;4.40;;;3.30;;
20375;SDS011;10347;51.828;6.466;2022-12-07T05:43:04;3.92;;;3.05;;
20375;SDS011;10347;51.828;6.466;2022-12-07T05:45:29;6.53;;;3.70;;
20375;SDS011;10347;51.828;6.466;2022-12-07T05:47:55;4.15;;;3.08;;
20375;SDS011;10347;51.828;6.466;2022-12-07T05:50:20;5.78;;;3.35;;
20375;SDS011;10347;51.828;6.466;2022-12-07T05:52:46;3.92;;;3.53;;
20375;SDS011;10347;51.828;6.466;2022-12-07T05:55:11;4.47;;;3.05;;
20375;SDS011;10347;51.828;6.466;2022-12-07T05:57:38;5.13;;;3.45;;
20375;SDS011;10347;51.828;6.466;2022-12-07T06:00:04;3.33;;;3.03;;
20375;SDS011;10347;51.828;6.466;2022-12-07T06:02:30;4.82;;;3.10;;
20375;SDS011;10347;51.828;6.466;2022-12-07T06:04:56;3.47;;;3.17;;
20375;SDS011;10347;51.828;6.466;2022-12-07T06:07:21;5.97;;;3.40;;
20375;SDS011;10347;51.828;6.466;2022-12-07T06:09:47;3.95;;;3.33;;
20375;SDS011;10347;51.828;6.466;2022-12-07T06:12:13;4.65;;;3.70;;
20375;SDS011;10347;51.828;6.466;2022-12-07T06:14:58;5.20;;;3.88;;
20375;SDS011;10347;51.828;6.466;2022-12-07T06:17:24;4.18;;;3.65;;
20375;SDS011;10347;51.828;6.466;2022-12-07T06:19:49;4.07;;;3.67;;
20375;SDS011;10347;51.828;6.466;2022-12-07T06:22:15;3.95;;;3.60;;
20375;SDS011;10347;51.828;6.466;2022-12-07T06:24:41;4.38;;;3.40;;
20375;SDS011;10347;51.828;6.466;2022-12-07T06:27:06;7.07;;;3.65;;
20375;SDS011;10347;51.828;6.466;2022-12-07T06:29:32;9.05;;;5.05;;
20375;SDS011;10347;51.828;6.466;2022-12-07T06:31:58;4.78;;;3.70;;
20375;SDS011;10347;51.828;6.466;2022-12-07T06:34:24;9.05;;;4.05;;
20375;SDS011;10347;51.828;6.466;2022-12-07T06:36:50;8.15;;;4.43;;
20375;SDS011;10347;51.828;6.466;2022-12-07T06:39:18;6.15;;;4.03;;
20375;SDS011;10347;51.828;6.466;2022-12-07T06:41:45;4.63;;;4.15;;
20375;SDS011;10347;51.828;6.466;2022-12-07T06:44:11;6.75;;;4.00;;
20375;SDS011;10347;51.828;6.466;2022-12-07T06:46:36;5.80;;;3.80;;
20375;SDS011;10347;51.828;6.466;2022-12-07T06:49:02;4.00;;;3.60;;
20375;SDS011;10347;51.828;6.466;2022-12-07T06:51:29;5.60;;;3.55;;
20375;SDS011;10347;51.828;6.466;2022-12-07T06:53:55;4.95;;;3.33;;
20375;SDS011;10347;51.828;6.466;2022-12-07T06:56:21;6.50;;;3.95;;
20375;SDS011;10347;51.828;6.466;2022-12-07T06:58:47;7.10;;;3.42;;
20375;SDS011;10347;51.828;6.466;2022-12-07T07:01:14;5.53;;;3.80;;
20375;SDS011;10347;51.828;6.466;2022-12-07T07:03:41;6.88;;;3.67;;
20375;SDS011;10347;51.828;6.466;2022-12-07T07:06:07;5.70;;;3.30;;
20375;SDS011;10347;51.828;6.466;2022-12-07T07:08:34;6.22;;;3.20;;
20375;SDS011;10347;51.828;6.466;2022-12-07T07:11:00;4.07;;;3.13;;
20375;SDS011;10347;51.828;6.466;2022-12-07T07:13:26;5.90;;;3.22;;
20375;SDS011;10347;51.828;6.466;2022-12-07T07:15:52;5.22;;;2.88;;
20375;SDS011;10347;51.828;6.466;2022-12-07T07:18:18;6.15;;;3.17;;
20375;SDS011;10347;51.828;6.466;2022-12-07T07:20:43;5.30;;;3.47;;
20375;SDS011;10347;51.828;6.466;2022-12-07T07:23:09;8.52;;;3.83;;
20375;SDS011;10347;51.828;6.466;2022-12-07T07:25:35;6.50;;;3.55;;
20375;SDS011;10347;51.828;6.466;2022-12-07T07:28:00;5.25;;;3.15;;
20375;SDS011;10347;51.828;6.466;2022-12-07T07:30:26;5.90;;;3.88;;
20375;SDS011;10347;51.828;6.466;2022-12-07T07:32:55;5.85;;;3.50;;
20375;SDS011;10347;51.828;6.466;2022-12-07T07:35:25;5.85;;;3.75;;
20375;SDS011;10347;51.828;6.466;2022-12-07T07:37:51;3.92;;;3.38;;
20375;SDS011;10347;51.828;6.466;2022-12-07T07:40:17;6.38;;;3.38;;
20375;SDS011;10347;51.828;6.466;2022-12-07T07:42:43;5.78;;;3.40;;
20375;SDS011;10347;51.828;6.466;2022-12-07T07:45:08;5.20;;;3.30;;
20375;SDS011;10347;51.828;6.466;2022-12-07T07:47:34;5.05;;;3.22;;
20375;SDS011;10347;51.828;6.466;2022-12-07T07:50:00;7.57;;;3.17;;
20375;SDS011;10347;51.828;6.466;2022-12-07T07:52:26;6.10;;;3.15;;
20375;SDS011;10347;51.828;6.466;2022-12-07T07:54:51;7.00;;;3.13;;
20375;SDS011;10347;51.828;6.466;2022-12-07T07:57:17;9.30;;;3.00;;
20375;SDS011;10347;51.828;6.466;2022-12-07T07:59:43;6.13;;;3.03;;
20375;SDS011;10347;51.828;6.466;2022-12-07T08:02:12;7.90;;;3.35;;
20375;SDS011;10347;51.828;6.466;2022-12-07T08:04:40;6.50;;;2.95;;
20375;SDS011;10347;51.828;6.466;2022-12-07T08:07:05;4.97;;;2.80;;
20375;SDS011;10347;51.828;6.466;2022-12-07T08:09:31;6.63;;;3.35;;
20375;SDS011;10347;51.828;6.466;2022-12-07T08:11:57;4.40;;;3.20;;
20375;SDS011;10347;51.828;6.466;2022-12-07T08:14:22;5.32;;;3.03;;
20375;SDS011;10347;51.828;6.466;2022-12-07T08:16:49;5.45;;;3.00;;
20375;SDS011;10347;51.828;6.466;2022-12-07T08:19:15;4.10;;;2.90;;
20375;SDS011;10347;51.828;6.466;2022-12-07T08:21:40;4.00;;;2.88;;
20375;SDS011;10347;51.828;6.466;2022-12-07T08:24:06;4.13;;;3.30;;
20375;SDS011;10347;51.828;6.466;2022-12-07T08:26:32;5.43;;;3.47;;
20375;SDS011;10347;51.828;6.466;2022-12-07T08:28:57;7.78;;;3.13;;
20375;SDS011;10347;51.828;6.466;2022-12-07T08:31:23;4.35;;;3.28;;
20375;SDS011;10347;51.828;6.466;2022-12-07T08:33:48;4.32;;;3.10;;
20375;SDS011;10347;51.828;6.466;2022-12-07T08:36:14;5.82;;;3.20;;
20375;SDS011;10347;51.828;6.466;2022-12-07T08:38:41;4.82;;;3.25;;
20375;SDS011;10347;51.828;6.466;2022-12-07T08:41:06;6.13;;;3.33;;
20375;SDS011;10347;51.828;6.466;2022-12-07T08:43:33;4.75;;;3.35;;
20375;SDS011;10347;51.828;6.466;2022-12-07T08:48:34;9.77;;;3.92;;
20375;SDS011;10347;51.828;6.466;2022-12-07T08:51:02;6.15;;;3.42;;
20375;SDS011;10347;51.828;6.466;2022-12-07T08:53:28;6.45;;;3.67;;
20375;SDS011;10347;51.828;6.466;2022-12-07T08:55:54;6.10;;;3.72;;
20375;SDS011;10347;51.828;6.466;2022-12-07T08:58:21;5.05;;;3.70;;
20375;SDS011;10347;51.828;6.466;2022-12-07T09:00:47;6.53;;;3.50;;
20375;SDS011;10347;51.828;6.466;2022-12-07T09:03:12;6.68;;;3.78;;
20375;SDS011;10347;51.828;6.466;2022-12-07T09:05:38;5.35;;;3.08;;
20375;SDS011;10347;51.828;6.466;2022-12-07T09:08:04;5.15;;;2.90;;
20375;SDS011;10347;51.828;6.466;2022-12-07T09:10:30;9.13;;;3.65;;
20375;SDS011;10347;51.828;6.466;2022-12-07T09:12:55;10.23;;;3.65;;
20375;SDS011;10347;51.828;6.466;2022-12-07T09:15:25;5.30;;;3.25;;
20375;SDS011;10347;51.828;6.466;2022-12-07T09:17:52;4.70;;;3.17;;
20375;SDS011;10347;51.828;6.466;2022-12-07T09:20:17;6.30;;;3.33;;
20375;SDS011;10347;51.828;6.466;2022-12-07T09:22:43;6.07;;;3.95;;
20375;SDS011;10347;51.828;6.466;2022-12-07T09:25:09;5.78;;;3.40;;
20375;SDS011;10347;51.828;6.466;2022-12-07T09:27:35;7.93;;;3.47;;
20375;SDS011;10347;51.828;6.466;2022-12-07T09:30:00;7.32;;;3.28;;
20375;SDS011;10347;51.828;6.466;2022-12-07T09:32:26;6.63;;;2.88;;
20375;SDS011;10347;51.828;6.466;2022-12-07T09:34:51;3.60;;;2.80;;
20375;SDS011;10347;51.828;6.466;2022-12-07T09:37:17;5.22;;;2.25;;
20375;SDS011;10347;51.828;6.466;2022-12-07T09:39:43;5.00;;;2.67;;
20375;SDS011;10347;51.828;6.466;2022-12-07T09:42:08;5.43;;;2.75;;
20375;SDS011;10347;51.828;6.466;2022-12-07T09:45:02;6.10;;;2.78;;
20375;SDS011;10347;51.828;6.466;2022-12-07T09:47:31;4.30;;;2.50;;
20375;SDS011;10347;51.828;6.466;2022-12-07T09:50:12;8.32;;;2.70;;
20375;SDS011;10347;51.828;6.466;2022-12-07T09:52:40;5.28;;;2.60;;
20375;SDS011;10347;51.828;6.466;2022-12-07T09:55:12;6.63;;;2.30;;
20375;SDS011;10347;51.828;6.466;2022-12-07T09:57:40;5.55;;;2.58;;
20375;SDS011;10347;51.828;6.466;2022-12-07T10:00:11;7.93;;;2.75;;
20375;SDS011;10347;51.828;6.466;2022-12-07T10:02:55;3.50;;;2.25;;
20375;SDS011;10347;51.828;6.466;2022-12-07T10:08:26;4.07;;;2.35;;
20375;SDS011;10347;51.828;6.466;2022-12-07T10:10:52;3.17;;;2.17;;
20375;SDS011;10347;51.828;6.466;2022-12-07T10:13:43;6.85;;;2.78;;
20375;SDS011;10347;51.828;6.466;2022-12-07T10:18:55;3.10;;;2.50;;
20375;SDS011;10347;51.828;6.466;2022-12-07T10:21:22;2.53;;;1.90;;
20375;SDS011;10347;51.828;6.466;2022-12-07T10:23:59;6.63;;;2.28;;
20375;SDS011;10347;51.828;6.466;2022-12-07T10:26:35;6.18;;;2.53;;
20375;SDS011;10347;51.828;6.466;2022-12-07T10:29:14;7.80;;;2.30;;
20375;SDS011;10347;51.828;6.466;2022-12-07T10:31:42;4.30;;;2.38;;
20375;SDS011;10347;51.828;6.466;2022-12-07T10:34:27;4.22;;;2.47;;
20375;SDS011;10347;51.828;6.466;2022-12-07T10:37:17;8.07;;;2.70;;
20375;SDS011;10347;51.828;6.466;2022-12-07T10:42:17;6.15;;;2.47;;
20375;SDS011;10347;51.828;6.466;2022-12-07T10:45:02;6.72;;;2.63;;
20375;SDS011;10347;51.828;6.466;2022-12-07T10:47:36;7.32;;;2.97;;
20375;SDS011;10347;51.828;6.466;2022-12-07T11:01:23;7.35;;;2.80;;
20375;SDS011;10347;51.828;6.466;2022-12-07T11:06:30;3.33;;;2.17;;
20375;SDS011;10347;51.828;6.466;2022-12-07T11:15:00;5.90;;;2.60;;
20375;SDS011;10347;51.828;6.466;2022-12-07T11:17:54;5.40;;;2.30;;
20375;SDS011;10347;51.828;6.466;2022-12-07T11:26:39;8.68;;;2.58;;
20375;SDS011;10347;51.828;6.466;2022-12-07T11:37:43;4.28;;;2.00;;
20375;SDS011;10347;51.828;6.466;2022-12-07T11:40:20;2.97;;;2.33;;
20375;SDS011;10347;51.828;6.466;2022-12-07T11:45:27;8.15;;;2.10;;
20375;SDS011;10347;51.828;6.466;2022-12-07T11:48:13;10.77;;;2.47;;
20375;SDS011;10347;51.828;6.466;2022-12-07T11:50:48;5.53;;;2.35;;
20375;SDS011;10347;51.828;6.466;2022-12-07T11:53:20;5.38;;;2.40;;
20375;SDS011;10347;51.828;6.466;2022-12-07T11:55:54;8.95;;;2.30;;
20375;SDS011;10347;51.828;6.466;2022-12-07T11:58:35;5.45;;;2.20;;
20375;SDS011;10347;51.828;6.466;2022-12-07T12:03:45;6.93;;;2.53;;
20375;SDS011;10347;51.828;6.466;2022-12-07T12:06:12;7.50;;;2.55;;
20375;SDS011;10347;51.828;6.466;2022-12-07T12:08:43;7.20;;;2.42;;
20375;SDS011;10347;51.828;6.466;2022-12-07T12:16:31;5.45;;;2.35;;
20375;SDS011;10347;51.828;6.466;2022-12-07T12:19:24;5.68;;;2.13;;
20375;SDS011;10347;51.828;6.466;2022-12-07T12:21:56;6.13;;;2.10;;
20375;SDS011;10347;51.828;6.466;2022-12-07T12:24:31;3.80;;;2.30;;
20375;SDS011;10347;51.828;6.466;2022-12-07T12:27:08;4.82;;;2.10;;
20375;SDS011;10347;51.828;6.466;2022-12-07T12:29:42;4.07;;;2.00;;
20375;SDS011;10347;51.828;6.466;2022-12-07T12:37:38;3.47;;;1.80;;
20375;SDS011;10347;51.828;6.466;2022-12-07T12:50:35;5.80;;;2.08;;
20375;SDS011;10347;51.828;6.466;2022-12-07T13:00:45;7.90;;;2.78;;
20375;SDS011;10347;51.828;6.466;2022-12-07T13:03:28;4.22;;;2.08;;
20375;SDS011;10347;51.828;6.466;2022-12-07T13:08:50;3.65;;;2.20;;
20375;SDS011;10347;51.828;6.466;2022-12-07T13:11:24;6.65;;;2.10;;
20375;SDS011;10347;51.828;6.466;2022-12-07T13:17:05;5.40;;;1.85;;
20375;SDS011;10347;51.828;6.466;2022-12-07T13:24:57;3.88;;;2.00;;
20375;SDS011;10347;51.828;6.466;2022-12-07T13:27:40;4.93;;;1.80;;
20375;SDS011;10347;51.828;6.466;2022-12-07T13:30:13;3.88;;;1.88;;
20375;SDS011;10347;51.828;6.466;2022-12-07T13:32:40;5.10;;;2.00;;
20375;SDS011;10347;51.828;6.466;2022-12-07T13:37:55;6.70;;;2.20;;
20375;SDS011;10347;51.828;6.466;2022-12-07T13:40:21;6.70;;;2.00;;
20375;SDS011;10347;51.828;6.466;2022-12-07T13:42:48;8.00;;;2.20;;
20375;SDS011;10347;51.828;6.466;2022-12-07T13:45:30;4.80;;;1.70;;
20375;SDS011;10347;51.828;6.466;2022-12-07T13:48:32;5.28;;;1.90;;
20375;SDS011;10347;51.828;6.466;2022-12-07T13:51:14;2.70;;;2.00;;
20375;SDS011;10347;51.828;6.466;2022-12-07T13:53:47;6.93;;;2.00;;
20375;SDS011;10347;51.828;6.466;2022-12-07T13:56:34;3.97;;;2.28;;
20375;SDS011;10347;51.828;6.466;2022-12-07T13:59:00;5.20;;;2.10;;
20375;SDS011;10347;51.828;6.466;2022-12-07T14:01:26;8.27;;;2.45;;
20375;SDS011;10347;51.828;6.466;2022-12-07T14:03:53;9.70;;;2.60;;
20375;SDS011;10347;51.828;6.466;2022-12-07T14:06:27;2.45;;;1.92;;
20375;SDS011;10347;51.828;6.466;2022-12-07T14:11:53;6.00;;;2.55;;
20375;SDS011;10347;51.828;6.466;2022-12-07T14:14:21;11.25;;;2.70;;
20375;SDS011;10347;51.828;6.466;2022-12-07T14:17:11;4.15;;;2.30;;
20375;SDS011;10347;51.828;6.466;2022-12-07T14:19:55;6.72;;;2.50;;
20375;SDS011;10347;51.828;6.466;2022-12-07T14:25:43;4.75;;;2.13;;
20375;SDS011;10347;51.828;6.466;2022-12-07T14:27:47;6.97;;;2.35;;
20375;SDS011;10347;51.828;6.466;2022-12-07T14:30:21;4.07;;;2.17;;
20375;SDS011;10347;51.828;6.466;2022-12-07T14:32:51;5.40;;;2.30;;
20375;SDS011;10347;51.828;6.466;2022-12-07T14:35:37;4.43;;;2.38;;
20375;SDS011;10347;51.828;6.466;2022-12-07T14:38:05;4.90;;;1.88;;
20375;SDS011;10347;51.828;6.466;2022-12-07T14:40:31;5.78;;;2.53;;
20375;SDS011;10347;51.828;6.466;2022-12-07T14:42:59;6.15;;;2.45;;
20375;SDS011;10347;51.828;6.466;2022-12-07T14:45:27;5.10;;;2.10;;
20375;SDS011;10347;51.828;6.466;2022-12-07T14:47:53;4.20;;;2.08;;
20375;SDS011;10347;51.828;6.466;2022-12-07T14:50:19;6.45;;;1.92;;
20375;SDS011;10347;51.828;6.466;2022-12-07T14:52:54;3.38;;;2.10;;
20375;SDS011;10347;51.828;6.466;2022-12-07T14:55:24;3.63;;;2.00;;
20375;SDS011;10347;51.828;6.466;2022-12-07T14:57:52;4.90;;;2.53;;
20375;SDS011;10347;51.828;6.466;2022-12-07T15:00:18;4.72;;;2.20;;
20375;SDS011;10347;51.828;6.466;2022-12-07T15:02:45;3.88;;;2.42;;
20375;SDS011;10347;51.828;6.466;2022-12-07T15:05:11;4.47;;;2.10;;
20375;SDS011;10347;51.828;6.466;2022-12-07T15:07:38;5.32;;;2.13;;
20375;SDS011;10347;51.828;6.466;2022-12-07T15:10:04;3.05;;;2.30;;
20375;SDS011;10347;51.828;6.466;2022-12-07T15:12:30;3.65;;;2.15;;
20375;SDS011;10347;51.828;6.466;2022-12-07T15:14:56;5.70;;;2.25;;
20375;SDS011;10347;51.828;6.466;2022-12-07T15:17:21;7.22;;;2.47;;
20375;SDS011;10347;51.828;6.466;2022-12-07T15:19:47;7.72;;;2.35;;
20375;SDS011;10347;51.828;6.466;2022-12-07T15:22:12;7.68;;;2.13;;
20375;SDS011;10347;51.828;6.466;2022-12-07T15:24:38;2.22;;;2.00;;
20375;SDS011;10347;51.828;6.466;2022-12-07T15:27:04;4.00;;;2.90;;
20375;SDS011;10347;51.828;6.466;2022-12-07T15:29:29;4.47;;;2.28;;
20375;SDS011;10347;51.828;6.466;2022-12-07T15:31:55;2.97;;;1.80;;
20375;SDS011;10347;51.828;6.466;2022-12-07T15:34:21;2.63;;;2.00;;
20375;SDS011;10347;51.828;6.466;2022-12-07T15:36:50;4.30;;;1.90;;
20375;SDS011;10347;51.828;6.466;2022-12-07T15:39:15;1.85;;;1.40;;
20375;SDS011;10347;51.828;6.466;2022-12-07T15:41:41;2.80;;;1.95;;
20375;SDS011;10347;51.828;6.466;2022-12-07T15:44:08;5.10;;;1.50;;
20375;SDS011;10347;51.828;6.466;2022-12-07T15:46:55;1.42;;;1.33;;
20375;SDS011;10347;51.828;6.466;2022-12-07T15:49:20;3.10;;;1.58;;
20375;SDS011;10347;51.828;6.466;2022-12-07T15:51:46;1.40;;;1.30;;
20375;SDS011;10347;51.828;6.466;2022-12-07T15:54:19;3.15;;;1.77;;
20375;SDS011;10347;51.828;6.466;2022-12-07T15:56:46;1.30;;;1.20;;
20375;SDS011;10347;51.828;6.466;2022-12-07T15:59:12;2.85;;;1.58;;
20375;SDS011;10347;51.828;6.466;2022-12-07T16:01:38;2.20;;;1.30;;
20375;SDS011;10347;51.828;6.466;2022-12-07T16:04:04;2.90;;;1.50;;
20375;SDS011;10347;51.828;6.466;2022-12-07T16:06:29;2.38;;;1.20;;
20375;SDS011;10347;51.828;6.466;2022-12-07T16:08:55;1.85;;;1.30;;
20375;SDS011;10347;51.828;6.466;2022-12-07T16:11:21;1.77;;;1.35;;
20375;SDS011;10347;51.828;6.466;2022-12-07T16:13:46;1.88;;;1.20;;
20375;SDS011;10347;51.828;6.466;2022-12-07T16:16:14;2.22;;;1.55;;
20375;SDS011;10347;51.828;6.466;2022-12-07T16:18:41;2.35;;;1.60;;
20375;SDS011;10347;51.828;6.466;2022-12-07T16:21:07;1.60;;;1.50;;
20375;SDS011;10347;51.828;6.466;2022-12-07T16:23:33;2.58;;;1.45;;
20375;SDS011;10347;51.828;6.466;2022-12-07T16:28:35;3.10;;;1.50;;
20375;SDS011;10347;51.828;6.466;2022-12-07T16:31:08;2.17;;;1.30;;
20375;SDS011;10347;51.828;6.466;2022-12-07T16:33:39;1.45;;;1.38;;
20375;SDS011;10347;51.828;6.466;2022-12-07T16:36:06;2.17;;;1.63;;
20375;SDS011;10347;51.828;6.466;2022-12-07T16:38:33;1.80;;;1.50;;
20375;SDS011;10347;51.828;6.466;2022-12-07T16:40:59;1.80;;;1.40;;
20375;SDS011;10347;51.828;6.466;2022-12-07T16:43:25;1.40;;;1.38;;
20375;SDS011;10347;51.828;6.466;2022-12-07T16:45:50;2.85;;;1.90;;
20375;SDS011;10347;51.828;6.466;2022-12-07T16:48:16;4.18;;;1.83;;
20375;SDS011;10347;51.828;6.466;2022-12-07T16:50:43;3.97;;;1.92;;
20375;SDS011;10347;51.828;6.466;2022-12-07T16:53:09;2.08;;;1.98;;
20375;SDS011;10347;51.828;6.466;2022-12-07T16:55:39;3.15;;;2.10;;
20375;SDS011;10347;51.828;6.466;2022-12-07T16:58:06;4.47;;;2.20;;
20375;SDS011;10347;51.828;6.466;2022-12-07T17:00:32;2.30;;;2.10;;
20375;SDS011;10347;51.828;6.466;2022-12-07T17:03:01;3.05;;;2.13;;
20375;SDS011;10347;51.828;6.466;2022-12-07T17:05:26;7.10;;;2.45;;
20375;SDS011;10347;51.828;6.466;2022-12-07T17:07:54;2.75;;;2.47;;